sensor_id;sensor_type;location;lat;lon;timestamp;temperature;humidity
19862;DHT22;10093;48.148;8.542;2024-02-15T00:01:54;5.60;99.90
19862;DHT22;10093;48.148;8.542;2024-02-15T00:04:20;5.50;99.90
19862;DHT22;10093;48.148;8.542;2024-02-15T00:06:45;5.30;99.90
19862;DHT22;10093;48.148;8.542;2024-02-15T00:09:11;5.10;99.90
19862;DHT22;10093;48.148;8.542;2024-02-15T00:11:37;4.90;99.90
19862;DHT22;10093;48.148;8.542;2024-02-15T00:14:04;5.00;99.90
19862;DHT22;10093;48.148;8.542;2024-02-15T00:16:30;4.90;99.90
19862;DHT22;10093;48.148;8.542;2024-02-15T00:18:56;5.10;99.90
19862;DHT22;10093;48.148;8.542;2024-02-15T00:21:22;5.10;99.90
19862;DHT22;10093;48.148;8.542;2024-02-15T00:23:48;4.90;99.90
19862;DHT22;10093;48.148;8.542;2024-02-15T00:26:14;4.90;99.90
19862;DHT22;10093;48.148;8.542;2024-02-15T00:28:43;4.80;99.90
19862;DHT22;10093;48.148;8.542;2024-02-15T00:31:09;4.80;99.90
19862;DHT22;10093;48.148;8.542;2024-02-15T00:33:34;4.50;99.90
19862;DHT22;10093;48.148;8.542;2024-02-15T00:36:04;4.70;99.90
19862;DHT22;10093;48.148;8.542;2024-02-15T00:38:31;4.60;99.90
19862;DHT22;10093;48.148;8.542;2024-02-15T00:40:57;4.70;99.90
19862;DHT22;10093;48.148;8.542;2024-02-15T00:43:24;4.60;99.90
19862;DHT22;10093;48.148;8.542;2024-02-15T00:45:50;4.50;99.90
19862;DHT22;10093;48.148;8.542;2024-02-15T00:48:16;4.70;99.90
19862;DHT22;10093;48.148;8.542;2024-02-15T00:50:41;4.70;99.90
19862;DHT22;10093;48.148;8.542;2024-02-15T00:53:07;4.60;99.90
19862;DHT22;10093;48.148;8.542;2024-02-15T00:55:32;4.70;99.90
19862;DHT22;10093;48.148;8.542;2024-02-15T00:57:58;4.70;99.90
19862;DHT22;10093;48.148;8.542;2024-02-15T01:00:23;4.50;99.90
19862;DHT22;10093;48.148;8.542;2024-02-15T01:02:49;4.10;99.90
19862;DHT22;10093;48.148;8.542;2024-02-15T01:05:15;4.20;99.90
19862;DHT22;10093;48.148;8.542;2024-02-15T01:07:41;4.10;99.90
19862;DHT22;10093;48.148;8.542;2024-02-15T01:10:07;3.80;99.90
19862;DHT22;10093;48.148;8.542;2024-02-15T01:12:33;3.70;99.90
19862;DHT22;10093;48.148;8.542;2024-02-15T01:14:59;3.50;99.90
19862;DHT22;10093;48.148;8.542;2024-02-15T01:17:24;3.70;99.90
19862;DHT22;10093;48.148;8.542;2024-02-15T01:19:50;3.70;99.90
19862;DHT22;10093;48.148;8.542;2024-02-15T01:22:16;3.70;99.90
19862;DHT22;10093;48.148;8.542;2024-02-15T01:24:42;3.80;99.90
19862;DHT22;10093;48.148;8.542;2024-02-15T01:27:07;3.90;99.90
19862;DHT22;10093;48.148;8.542;2024-02-15T01:29:34;4.00;99.90
19862;DHT22;10093;48.148;8.542;2024-02-15T01:32:00;3.90;99.90
19862;DHT22;10093;48.148;8.542;2024-02-15T01:34:27;4.20;99.90
19862;DHT22;10093;48.148;8.542;2024-02-15T01:36:53;4.30;99.90
19862;DHT22;10093;48.148;8.542;2024-02-15T01:39:19;4.00;99.90
19862;DHT22;10093;48.148;8.542;2024-02-15T01:41:48;3.80;99.90
19862;DHT22;10093;48.148;8.542;2024-02-15T01:44:19;3.60;99.90
19862;DHT22;10093;48.148;8.542;2024-02-15T01:46:47;3.80;99.90
19862;DHT22;10093;48.148;8.542;2024-02-15T01:49:13;3.60;99.90
19862;DHT22;10093;48.148;8.542;2024-02-15T01:51:41;3.50;99.90
19862;DHT22;10093;48.148;8.542;2024-02-15T01:54:10;3.70;99.90
19862;DHT22;10093;48.148;8.542;2024-02-15T01:56:36;3.60;99.90
19862;DHT22;10093;48.148;8.542;2024-02-15T01:59:03;3.60;99.90
19862;DHT22;10093;48.148;8.542;2024-02-15T02:01:31;3.30;99.90
19862;DHT22;10093;48.148;8.542;2024-02-15T02:04:00;3.20;99.90
19862;DHT22;10093;48.148;8.542;2024-02-15T02:06:26;3.30;99.90
19862;DHT22;10093;48.148;8.542;2024-02-15T02:08:52;3.00;99.90
19862;DHT22;10093;48.148;8.542;2024-02-15T02:11:22;2.80;99.90
19862;DHT22;10093;48.148;8.542;2024-02-15T02:13:48;2.60;99.90
19862;DHT22;10093;48.148;8.542;2024-02-15T02:16:40;2.50;99.90
19862;DHT22;10093;48.148;8.542;2024-02-15T02:19:05;2.40;99.90
19862;DHT22;10093;48.148;8.542;2024-02-15T02:21:38;2.20;99.90
19862;DHT22;10093;48.148;8.542;2024-02-15T02:24:12;2.10;99.90
19862;DHT22;10093;48.148;8.542;2024-02-15T02:26:38;2.40;99.90
19862;DHT22;10093;48.148;8.542;2024-02-15T02:29:04;2.20;99.90
19862;DHT22;10093;48.148;8.542;2024-02-15T02:31:36;2.10;99.90
19862;DHT22;10093;48.148;8.542;2024-02-15T02:34:02;2.10;99.90
19862;DHT22;10093;48.148;8.542;2024-02-15T02:36:29;2.10;99.90
19862;DHT22;10093;48.148;8.542;2024-02-15T02:38:55;2.30;99.90
19862;DHT22;10093;48.148;8.542;2024-02-15T02:41:21;2.30;99.90
19862;DHT22;10093;48.148;8.542;2024-02-15T02:43:47;2.20;99.90
19862;DHT22;10093;48.148;8.542;2024-02-15T02:46:12;2.00;99.90
19862;DHT22;10093;48.148;8.542;2024-02-15T02:48:39;1.90;99.90
19862;DHT22;10093;48.148;8.542;2024-02-15T02:51:05;1.90;99.90
19862;DHT22;10093;48.148;8.542;2024-02-15T02:53:31;1.90;99.90
19862;DHT22;10093;48.148;8.542;2024-02-15T02:55:57;1.80;99.90
19862;DHT22;10093;48.148;8.542;2024-02-15T02:58:23;2.00;99.90
19862;DHT22;10093;48.148;8.542;2024-02-15T03:00:49;1.90;99.90
19862;DHT22;10093;48.148;8.542;2024-02-15T03:03:15;1.80;99.90
19862;DHT22;10093;48.148;8.542;2024-02-15T03:05:41;1.80;99.90
19862;DHT22;10093;48.148;8.542;2024-02-15T03:08:09;1.80;99.90
19862;DHT22;10093;48.148;8.542;2024-02-15T03:10:34;1.80;99.90
19862;DHT22;10093;48.148;8.542;2024-02-15T03:13:00;1.60;99.90
19862;DHT22;10093;48.148;8.542;2024-02-15T03:15:25;1.70;99.90
19862;DHT22;10093;48.148;8.542;2024-02-15T03:17:51;1.70;99.90
19862;DHT22;10093;48.148;8.542;2024-02-15T03:20:17;1.80;99.90
19862;DHT22;10093;48.148;8.542;2024-02-15T03:25:18;2.00;99.90
19862;DHT22;10093;48.148;8.542;2024-02-15T03:27:44;1.80;99.90
19862;DHT22;10093;48.148;8.542;2024-02-15T03:30:10;1.60;99.90
19862;DHT22;10093;48.148;8.542;2024-02-15T03:32:36;1.60;99.90
19862;DHT22;10093;48.148;8.542;2024-02-15T03:35:02;1.60;99.90
19862;DHT22;10093;48.148;8.542;2024-02-15T03:37:28;1.60;99.90
19862;DHT22;10093;48.148;8.542;2024-02-15T03:39:54;1.50;99.90
19862;DHT22;10093;48.148;8.542;2024-02-15T03:42:20;1.40;99.90
19862;DHT22;10093;48.148;8.542;2024-02-15T03:44:46;1.40;99.90
19862;DHT22;10093;48.148;8.542;2024-02-15T03:47:13;1.40;99.90
19862;DHT22;10093;48.148;8.542;2024-02-15T03:49:40;1.40;99.90
19862;DHT22;10093;48.148;8.542;2024-02-15T03:52:08;1.40;99.90
19862;DHT22;10093;48.148;8.542;2024-02-15T03:54:36;1.30;99.90
19862;DHT22;10093;48.148;8.542;2024-02-15T03:57:02;1.30;99.90
19862;DHT22;10093;48.148;8.542;2024-02-15T03:59:27;1.30;99.90
19862;DHT22;10093;48.148;8.542;2024-02-15T04:01:53;1.30;99.90
19862;DHT22;10093;48.148;8.542;2024-02-15T04:04:20;1.30;99.90
19862;DHT22;10093;48.148;8.542;2024-02-15T04:06:52;1.40;99.90
19862;DHT22;10093;48.148;8.542;2024-02-15T04:09:18;1.50;99.90
19862;DHT22;10093;48.148;8.542;2024-02-15T04:11:44;1.40;99.90
19862;DHT22;10093;48.148;8.542;2024-02-15T04:14:12;1.20;99.90
19862;DHT22;10093;48.148;8.542;2024-02-15T04:16:38;1.10;99.90
19862;DHT22;10093;48.148;8.542;2024-02-15T04:19:03;1.10;99.90
19862;DHT22;10093;48.148;8.542;2024-02-15T04:21:29;1.00;99.90
19862;DHT22;10093;48.148;8.542;2024-02-15T04:23:56;0.90;99.90
19862;DHT22;10093;48.148;8.542;2024-02-15T04:26:21;0.70;99.90
19862;DHT22;10093;48.148;8.542;2024-02-15T04:28:52;0.70;99.90
19862;DHT22;10093;48.148;8.542;2024-02-15T04:31:18;0.60;99.90
19862;DHT22;10093;48.148;8.542;2024-02-15T04:33:44;0.50;99.90
19862;DHT22;10093;48.148;8.542;2024-02-15T04:36:09;0.40;99.90
19862;DHT22;10093;48.148;8.542;2024-02-15T04:38:35;0.40;99.90
19862;DHT22;10093;48.148;8.542;2024-02-15T04:41:01;0.30;99.90
19862;DHT22;10093;48.148;8.542;2024-02-15T04:43:29;0.40;99.90
19862;DHT22;10093;48.148;8.542;2024-02-15T04:45:55;0.60;99.90
19862;DHT22;10093;48.148;8.542;2024-02-15T04:48:20;0.50;99.90
19862;DHT22;10093;48.148;8.542;2024-02-15T04:50:46;0.50;99.90
19862;DHT22;10093;48.148;8.542;2024-02-15T04:53:12;0.40;99.90
19862;DHT22;10093;48.148;8.542;2024-02-15T04:55:38;0.50;99.90
19862;DHT22;10093;48.148;8.542;2024-02-15T04:58:03;0.60;99.90
19862;DHT22;10093;48.148;8.542;2024-02-15T05:00:29;0.60;99.90
19862;DHT22;10093;48.148;8.542;2024-02-15T05:02:55;0.90;99.90
19862;DHT22;10093;48.148;8.542;2024-02-15T05:05:21;0.70;99.90
19862;DHT22;10093;48.148;8.542;2024-02-15T05:07:47;0.50;99.90
19862;DHT22;10093;48.148;8.542;2024-02-15T05:10:15;0.40;99.90
19862;DHT22;10093;48.148;8.542;2024-02-15T05:12:41;0.30;99.90
19862;DHT22;10093;48.148;8.542;2024-02-15T05:15:08;0.20;99.90
19862;DHT22;10093;48.148;8.542;2024-02-15T05:17:39;0.10;99.90
19862;DHT22;10093;48.148;8.542;2024-02-15T05:20:09;0.30;99.90
19862;DHT22;10093;48.148;8.542;2024-02-15T05:22:40;0.60;99.90
19862;DHT22;10093;48.148;8.542;2024-02-15T05:25:09;0.60;99.90
19862;DHT22;10093;48.148;8.542;2024-02-15T05:27:35;0.40;99.90
19862;DHT22;10093;48.148;8.542;2024-02-15T05:30:03;0.50;99.90
19862;DHT22;10093;48.148;8.542;2024-02-15T05:32:33;0.60;99.90
19862;DHT22;10093;48.148;8.542;2024-02-15T05:34:58;0.60;99.90
19862;DHT22;10093;48.148;8.542;2024-02-15T05:37:24;0.50;99.90
19862;DHT22;10093;48.148;8.542;2024-02-15T05:39:50;0.40;99.90
19862;DHT22;10093;48.148;8.542;2024-02-15T05:42:19;0.20;99.90
19862;DHT22;10093;48.148;8.542;2024-02-15T05:44:45;0.10;99.90
19862;DHT22;10093;48.148;8.542;2024-02-15T05:47:11;0.00;99.90
19862;DHT22;10093;48.148;8.542;2024-02-15T05:49:37;0.00;99.90
19862;DHT22;10093;48.148;8.542;2024-02-15T05:52:02;-0.10;99.90
19862;DHT22;10093;48.148;8.542;2024-02-15T05:54:28;0.10;99.90
19862;DHT22;10093;48.148;8.542;2024-02-15T05:56:54;0.50;99.90
19862;DHT22;10093;48.148;8.542;2024-02-15T05:59:21;0.60;99.90
19862;DHT22;10093;48.148;8.542;2024-02-15T06:01:47;0.60;99.90
19862;DHT22;10093;48.148;8.542;2024-02-15T06:04:15;0.40;99.90
19862;DHT22;10093;48.148;8.542;2024-02-15T06:06:42;0.60;99.90
19862;DHT22;10093;48.148;8.542;2024-02-15T06:09:08;0.60;99.90
19862;DHT22;10093;48.148;8.542;2024-02-15T06:11:34;0.60;99.90
19862;DHT22;10093;48.148;8.542;2024-02-15T06:13:59;0.50;99.90
19862;DHT22;10093;48.148;8.542;2024-02-15T06:16:25;0.60;99.90
19862;DHT22;10093;48.148;8.542;2024-02-15T06:18:51;0.50;99.90
19862;DHT22;10093;48.148;8.542;2024-02-15T06:21:17;0.40;99.90
19862;DHT22;10093;48.148;8.542;2024-02-15T06:23:52;0.30;99.90
19862;DHT22;10093;48.148;8.542;2024-02-15T06:26:20;0.50;99.90
19862;DHT22;10093;48.148;8.542;2024-02-15T06:28:46;0.70;99.90
19862;DHT22;10093;48.148;8.542;2024-02-15T06:31:32;0.60;99.90
19862;DHT22;10093;48.148;8.542;2024-02-15T06:34:16;0.60;99.90
19862;DHT22;10093;48.148;8.542;2024-02-15T06:37:00;0.70;99.90
19862;DHT22;10093;48.148;8.542;2024-02-15T06:39:44;0.70;99.90
19862;DHT22;10093;48.148;8.542;2024-02-15T06:42:17;0.80;99.90
19862;DHT22;10093;48.148;8.542;2024-02-15T06:44:46;0.80;99.90
19862;DHT22;10093;48.148;8.542;2024-02-15T06:47:13;0.90;99.90
19862;DHT22;10093;48.148;8.542;2024-02-15T06:49:39;0.90;99.90
19862;DHT22;10093;48.148;8.542;2024-02-15T06:52:08;0.90;99.90
19862;DHT22;10093;48.148;8.542;2024-02-15T06:54:41;1.00;99.90
19862;DHT22;10093;48.148;8.542;2024-02-15T06:57:07;1.00;99.90
19862;DHT22;10093;48.148;8.542;2024-02-15T06:59:33;1.20;99.90
19862;DHT22;10093;48.148;8.542;2024-02-15T07:02:00;1.50;99.90
19862;DHT22;10093;48.148;8.542;2024-02-15T07:04:27;1.80;99.90
19862;DHT22;10093;48.148;8.542;2024-02-15T07:06:52;2.30;99.90
19862;DHT22;10093;48.148;8.542;2024-02-15T07:09:20;3.10;99.90
19862;DHT22;10093;48.148;8.542;2024-02-15T07:11:48;4.20;99.90
19862;DHT22;10093;48.148;8.542;2024-02-15T07:14:14;5.00;99.90
19862;DHT22;10093;48.148;8.542;2024-02-15T07:16:44;5.40;99.90
19862;DHT22;10093;48.148;8.542;2024-02-15T07:19:10;6.00;99.90
19862;DHT22;10093;48.148;8.542;2024-02-15T07:21:35;6.10;99.90
19862;DHT22;10093;48.148;8.542;2024-02-15T07:24:01;6.40;99.90
19862;DHT22;10093;48.148;8.542;2024-02-15T07:26:27;6.70;99.90
19862;DHT22;10093;48.148;8.542;2024-02-15T07:28:56;6.40;99.90
19862;DHT22;10093;48.148;8.542;2024-02-15T07:31:23;5.90;99.90
19862;DHT22;10093;48.148;8.542;2024-02-15T07:33:51;5.70;99.90
19862;DHT22;10093;48.148;8.542;2024-02-15T07:36:21;5.60;99.90
19862;DHT22;10093;48.148;8.542;2024-02-15T07:38:48;5.40;99.90
19862;DHT22;10093;48.148;8.542;2024-02-15T07:41:15;5.40;99.90
19862;DHT22;10093;48.148;8.542;2024-02-15T07:43:41;5.50;99.90
19862;DHT22;10093;48.148;8.542;2024-02-15T07:46:06;6.10;99.90
19862;DHT22;10093;48.148;8.542;2024-02-15T07:48:32;6.30;99.90
19862;DHT22;10093;48.148;8.542;2024-02-15T07:50:58;6.50;99.90
19862;DHT22;10093;48.148;8.542;2024-02-15T07:53:24;6.80;99.90
19862;DHT22;10093;48.148;8.542;2024-02-15T07:55:50;7.90;99.90
19862;DHT22;10093;48.148;8.542;2024-02-15T07:58:16;9.10;99.90
19862;DHT22;10093;48.148;8.542;2024-02-15T08:00:44;10.10;99.90
19862;DHT22;10093;48.148;8.542;2024-02-15T08:03:10;11.30;99.90
19862;DHT22;10093;48.148;8.542;2024-02-15T08:05:35;12.60;99.90
19862;DHT22;10093;48.148;8.542;2024-02-15T08:08:02;13.40;99.90
19862;DHT22;10093;48.148;8.542;2024-02-15T08:10:29;14.00;99.90
19862;DHT22;10093;48.148;8.542;2024-02-15T08:12:55;13.90;99.90
19862;DHT22;10093;48.148;8.542;2024-02-15T08:15:23;13.70;99.90
19862;DHT22;10093;48.148;8.542;2024-02-15T08:17:50;14.20;99.90
19862;DHT22;10093;48.148;8.542;2024-02-15T08:20:16;14.60;99.90
19862;DHT22;10093;48.148;8.542;2024-02-15T08:22:47;15.00;99.90
19862;DHT22;10093;48.148;8.542;2024-02-15T08:25:13;14.90;99.90
19862;DHT22;10093;48.148;8.542;2024-02-15T08:27:42;15.60;99.90
19862;DHT22;10093;48.148;8.542;2024-02-15T08:30:12;16.10;99.90
19862;DHT22;10093;48.148;8.542;2024-02-15T08:32:39;16.30;99.90
19862;DHT22;10093;48.148;8.542;2024-02-15T08:35:05;16.10;99.90
19862;DHT22;10093;48.148;8.542;2024-02-15T08:37:32;16.10;99.90
19862;DHT22;10093;48.148;8.542;2024-02-15T08:39:59;16.20;99.90
19862;DHT22;10093;48.148;8.542;2024-02-15T08:42:25;16.20;99.90
19862;DHT22;10093;48.148;8.542;2024-02-15T08:44:52;15.60;99.90
19862;DHT22;10093;48.148;8.542;2024-02-15T08:47:17;14.80;99.90
19862;DHT22;10093;48.148;8.542;2024-02-15T08:49:43;14.10;99.90
19862;DHT22;10093;48.148;8.542;2024-02-15T08:52:08;13.90;99.90
19862;DHT22;10093;48.148;8.542;2024-02-15T08:54:35;13.70;99.90
19862;DHT22;10093;48.148;8.542;2024-02-15T08:57:04;14.10;99.90
19862;DHT22;10093;48.148;8.542;2024-02-15T08:59:30;14.20;99.90
19862;DHT22;10093;48.148;8.542;2024-02-15T09:01:56;13.80;99.90
19862;DHT22;10093;48.148;8.542;2024-02-15T09:04:22;13.50;99.90
19862;DHT22;10093;48.148;8.542;2024-02-15T09:06:50;13.90;99.90
19862;DHT22;10093;48.148;8.542;2024-02-15T09:09:16;14.10;99.90
19862;DHT22;10093;48.148;8.542;2024-02-15T09:11:42;14.00;99.90
19862;DHT22;10093;48.148;8.542;2024-02-15T09:14:07;13.50;99.90
19862;DHT22;10093;48.148;8.542;2024-02-15T09:16:36;13.50;99.90
19862;DHT22;10093;48.148;8.542;2024-02-15T09:19:01;13.40;99.90
19862;DHT22;10093;48.148;8.542;2024-02-15T09:21:27;13.30;99.90
19862;DHT22;10093;48.148;8.542;2024-02-15T09:23:56;12.40;99.90
19862;DHT22;10093;48.148;8.542;2024-02-15T09:26:21;13.10;99.90
19862;DHT22;10093;48.148;8.542;2024-02-15T09:28:47;13.70;99.90
19862;DHT22;10093;48.148;8.542;2024-02-15T09:31:13;14.00;99.90
19862;DHT22;10093;48.148;8.542;2024-02-15T09:33:41;14.40;99.90
19862;DHT22;10093;48.148;8.542;2024-02-15T09:36:07;14.10;99.90
19862;DHT22;10093;48.148;8.542;2024-02-15T09:38:33;13.90;99.90
19862;DHT22;10093;48.148;8.542;2024-02-15T09:40:59;13.90;99.90
19862;DHT22;10093;48.148;8.542;2024-02-15T09:43:25;14.20;99.90
19862;DHT22;10093;48.148;8.542;2024-02-15T09:45:52;13.80;99.90
19862;DHT22;10093;48.148;8.542;2024-02-15T09:48:24;13.70;99.90
19862;DHT22;10093;48.148;8.542;2024-02-15T09:50:52;13.70;99.90
19862;DHT22;10093;48.148;8.542;2024-02-15T09:53:21;12.90;99.90
19862;DHT22;10093;48.148;8.542;2024-02-15T09:55:47;12.20;99.90
19862;DHT22;10093;48.148;8.542;2024-02-15T09:58:14;12.90;99.90
19862;DHT22;10093;48.148;8.542;2024-02-15T10:00:40;11.60;99.90
19862;DHT22;10093;48.148;8.542;2024-02-15T10:03:07;11.60;99.90
19862;DHT22;10093;48.148;8.542;2024-02-15T10:05:33;12.50;99.90
19862;DHT22;10093;48.148;8.542;2024-02-15T10:07:59;12.70;99.90
19862;DHT22;10093;48.148;8.542;2024-02-15T10:10:27;13.40;99.90
19862;DHT22;10093;48.148;8.542;2024-02-15T10:12:53;13.80;99.90
19862;DHT22;10093;48.148;8.542;2024-02-15T10:15:35;14.20;99.90
19862;DHT22;10093;48.148;8.542;2024-02-15T10:18:08;13.80;99.90
19862;DHT22;10093;48.148;8.542;2024-02-15T10:20:36;13.70;99.90
19862;DHT22;10093;48.148;8.542;2024-02-15T10:23:15;13.80;99.90
19862;DHT22;10093;48.148;8.542;2024-02-15T10:25:44;13.90;99.90
19862;DHT22;10093;48.148;8.542;2024-02-15T10:28:11;14.60;99.90
19862;DHT22;10093;48.148;8.542;2024-02-15T10:30:41;14.60;99.90
19862;DHT22;10093;48.148;8.542;2024-02-15T10:33:09;14.90;99.90
19862;DHT22;10093;48.148;8.542;2024-02-15T10:35:34;15.20;99.90
19862;DHT22;10093;48.148;8.542;2024-02-15T10:38:09;15.20;99.90
19862;DHT22;10093;48.148;8.542;2024-02-15T10:40:39;15.10;99.90
19862;DHT22;10093;48.148;8.542;2024-02-15T10:43:09;14.90;99.90
19862;DHT22;10093;48.148;8.542;2024-02-15T10:45:39;15.00;99.90
19862;DHT22;10093;48.148;8.542;2024-02-15T10:48:10;15.30;99.90
19862;DHT22;10093;48.148;8.542;2024-02-15T10:50:36;15.50;99.90
19862;DHT22;10093;48.148;8.542;2024-02-15T10:53:23;15.10;99.90
19862;DHT22;10093;48.148;8.542;2024-02-15T10:56:15;14.90;99.90
19862;DHT22;10093;48.148;8.542;2024-02-15T10:59:09;14.90;99.90
19862;DHT22;10093;48.148;8.542;2024-02-15T11:01:38;14.70;99.90
19862;DHT22;10093;48.148;8.542;2024-02-15T11:04:07;14.50;99.90
19862;DHT22;10093;48.148;8.542;2024-02-15T11:06:35;14.50;99.90
19862;DHT22;10093;48.148;8.542;2024-02-15T11:09:04;14.60;99.90
19862;DHT22;10093;48.148;8.542;2024-02-15T11:11:33;14.90;99.90
19862;DHT22;10093;48.148;8.542;2024-02-15T11:14:27;15.20;99.90
19862;DHT22;10093;48.148;8.542;2024-02-15T11:16:58;15.80;99.90
19862;DHT22;10093;48.148;8.542;2024-02-15T11:22:04;16.10;99.90
19862;DHT22;10093;48.148;8.542;2024-02-15T11:24:34;15.40;99.90
19862;DHT22;10093;48.148;8.542;2024-02-15T11:27:04;14.30;99.90
19862;DHT22;10093;48.148;8.542;2024-02-15T11:29:58;14.30;99.90
19862;DHT22;10093;48.148;8.542;2024-02-15T11:32:45;14.80;99.90
19862;DHT22;10093;48.148;8.542;2024-02-15T11:35:13;14.40;99.90
19862;DHT22;10093;48.148;8.542;2024-02-15T11:43:10;15.20;99.90
19862;DHT22;10093;48.148;8.542;2024-02-15T11:45:36;16.10;99.90
19862;DHT22;10093;48.148;8.542;2024-02-15T11:48:10;17.00;99.90
19862;DHT22;10093;48.148;8.542;2024-02-15T11:50:37;17.20;99.90
19862;DHT22;10093;48.148;8.542;2024-02-15T11:53:04;17.00;99.90
19862;DHT22;10093;48.148;8.542;2024-02-15T11:55:37;17.20;99.90
19862;DHT22;10093;48.148;8.542;2024-02-15T11:58:04;17.20;99.90
19862;DHT22;10093;48.148;8.542;2024-02-15T12:00:39;16.90;99.90
19862;DHT22;10093;48.148;8.542;2024-02-15T12:03:24;16.50;99.90
19862;DHT22;10093;48.148;8.542;2024-02-15T12:06:08;16.30;99.90
19862;DHT22;10093;48.148;8.542;2024-02-15T12:08:53;16.20;99.90
19862;DHT22;10093;48.148;8.542;2024-02-15T12:11:39;16.40;99.90
19862;DHT22;10093;48.148;8.542;2024-02-15T12:14:23;16.30;99.90
19862;DHT22;10093;48.148;8.542;2024-02-15T12:17:10;16.40;99.90
19862;DHT22;10093;48.148;8.542;2024-02-15T12:19:56;16.50;99.90
19862;DHT22;10093;48.148;8.542;2024-02-15T12:22:37;16.90;99.90
19862;DHT22;10093;48.148;8.542;2024-02-15T12:25:06;17.70;99.90
19862;DHT22;10093;48.148;8.542;2024-02-15T12:27:43;18.40;99.90
19862;DHT22;10093;48.148;8.542;2024-02-15T12:30:14;18.50;99.90
19862;DHT22;10093;48.148;8.542;2024-02-15T12:32:40;17.30;99.90
19862;DHT22;10093;48.148;8.542;2024-02-15T12:35:17;17.50;99.90
19862;DHT22;10093;48.148;8.542;2024-02-15T12:37:48;17.50;99.90
19862;DHT22;10093;48.148;8.542;2024-02-15T12:40:20;17.50;99.90
19862;DHT22;10093;48.148;8.542;2024-02-15T12:42:47;17.70;99.90
19862;DHT22;10093;48.148;8.542;2024-02-15T12:45:17;17.60;99.90
19862;DHT22;10093;48.148;8.542;2024-02-15T12:47:51;17.50;99.90
19862;DHT22;10093;48.148;8.542;2024-02-15T12:50:19;17.50;99.90
19862;DHT22;10093;48.148;8.542;2024-02-15T12:52:49;16.70;99.90
19862;DHT22;10093;48.148;8.542;2024-02-15T12:55:19;17.10;99.90
19862;DHT22;10093;48.148;8.542;2024-02-15T12:57:48;17.60;99.90
19862;DHT22;10093;48.148;8.542;2024-02-15T13:00:18;17.80;99.90
19862;DHT22;10093;48.148;8.542;2024-02-15T13:02:49;17.70;99.90
19862;DHT22;10093;48.148;8.542;2024-02-15T13:05:18;17.70;99.90
19862;DHT22;10093;48.148;8.542;2024-02-15T13:07:46;17.30;99.90
19862;DHT22;10093;48.148;8.542;2024-02-15T13:10:12;17.60;99.90
19862;DHT22;10093;48.148;8.542;2024-02-15T13:12:41;17.50;99.90
19862;DHT22;10093;48.148;8.542;2024-02-15T13:15:07;17.30;99.90
19862;DHT22;10093;48.148;8.542;2024-02-15T13:17:37;17.40;99.90
19862;DHT22;10093;48.148;8.542;2024-02-15T13:20:04;16.90;99.90
19862;DHT22;10093;48.148;8.542;2024-02-15T13:22:33;16.60;99.90
19862;DHT22;10093;48.148;8.542;2024-02-15T13:25:01;16.20;99.90
19862;DHT22;10093;48.148;8.542;2024-02-15T13:27:28;16.80;99.90
19862;DHT22;10093;48.148;8.542;2024-02-15T13:29:54;17.10;99.90
19862;DHT22;10093;48.148;8.542;2024-02-15T13:32:20;17.10;99.90
19862;DHT22;10093;48.148;8.542;2024-02-15T13:34:48;16.90;99.90
19862;DHT22;10093;48.148;8.542;2024-02-15T13:37:20;16.80;99.90
19862;DHT22;10093;48.148;8.542;2024-02-15T13:39:49;16.60;99.90
19862;DHT22;10093;48.148;8.542;2024-02-15T13:42:15;16.40;99.90
19862;DHT22;10093;48.148;8.542;2024-02-15T13:44:44;16.40;99.90
19862;DHT22;10093;48.148;8.542;2024-02-15T13:47:11;16.40;99.90
19862;DHT22;10093;48.148;8.542;2024-02-15T13:49:38;16.40;99.90
19862;DHT22;10093;48.148;8.542;2024-02-15T13:52:05;16.40;99.90
19862;DHT22;10093;48.148;8.542;2024-02-15T13:54:32;16.40;99.90
19862;DHT22;10093;48.148;8.542;2024-02-15T13:56:58;16.70;99.90
19862;DHT22;10093;48.148;8.542;2024-02-15T13:59:27;16.60;99.90
19862;DHT22;10093;48.148;8.542;2024-02-15T14:01:52;16.10;99.90
19862;DHT22;10093;48.148;8.542;2024-02-15T14:04:18;15.40;99.90
19862;DHT22;10093;48.148;8.542;2024-02-15T14:06:44;15.70;99.90
19862;DHT22;10093;48.148;8.542;2024-02-15T14:09:10;15.90;99.90
19862;DHT22;10093;48.148;8.542;2024-02-15T14:11:39;15.90;99.90
19862;DHT22;10093;48.148;8.542;2024-02-15T14:14:05;15.60;99.90
19862;DHT22;10093;48.148;8.542;2024-02-15T14:16:31;15.40;99.90
19862;DHT22;10093;48.148;8.542;2024-02-15T14:18:58;15.60;99.90
19862;DHT22;10093;48.148;8.542;2024-02-15T14:21:25;15.60;99.90
19862;DHT22;10093;48.148;8.542;2024-02-15T14:23:51;15.60;99.90
19862;DHT22;10093;48.148;8.542;2024-02-15T14:26:16;15.70;99.90
19862;DHT22;10093;48.148;8.542;2024-02-15T14:28:43;15.70;99.90
19862;DHT22;10093;48.148;8.542;2024-02-15T14:31:11;15.80;99.90
19862;DHT22;10093;48.148;8.542;2024-02-15T14:33:55;16.00;99.90
19862;DHT22;10093;48.148;8.542;2024-02-15T14:36:21;15.80;99.90
19862;DHT22;10093;48.148;8.542;2024-02-15T14:38:47;15.90;99.90
19862;DHT22;10093;48.148;8.542;2024-02-15T14:41:12;15.90;99.90
19862;DHT22;10093;48.148;8.542;2024-02-15T14:43:38;15.80;99.90
19862;DHT22;10093;48.148;8.542;2024-02-15T14:46:04;15.80;99.90
19862;DHT22;10093;48.148;8.542;2024-02-15T14:48:35;15.80;99.90
19862;DHT22;10093;48.148;8.542;2024-02-15T14:51:01;15.80;99.90
19862;DHT22;10093;48.148;8.542;2024-02-15T14:53:27;15.80;99.90
19862;DHT22;10093;48.148;8.542;2024-02-15T14:55:53;15.70;99.90
19862;DHT22;10093;48.148;8.542;2024-02-15T14:58:20;15.60;99.90
19862;DHT22;10093;48.148;8.542;2024-02-15T15:00:48;15.60;99.90
19862;DHT22;10093;48.148;8.542;2024-02-15T15:03:15;15.40;99.90
19862;DHT22;10093;48.148;8.542;2024-02-15T15:05:44;15.30;99.90
19862;DHT22;10093;48.148;8.542;2024-02-15T15:08:29;15.20;99.90
19862;DHT22;10093;48.148;8.542;2024-02-15T15:11:13;15.00;99.90
19862;DHT22;10093;48.148;8.542;2024-02-15T15:13:57;14.90;99.90
19862;DHT22;10093;48.148;8.542;2024-02-15T15:16:23;14.80;99.90
19862;DHT22;10093;48.148;8.542;2024-02-15T15:18:51;14.60;99.90
19862;DHT22;10093;48.148;8.542;2024-02-15T15:21:20;14.60;99.90
19862;DHT22;10093;48.148;8.542;2024-02-15T15:23:48;14.60;99.90
19862;DHT22;10093;48.148;8.542;2024-02-15T15:26:21;14.50;99.90
19862;DHT22;10093;48.148;8.542;2024-02-15T15:28:48;14.50;99.90
19862;DHT22;10093;48.148;8.542;2024-02-15T15:31:13;14.50;99.90
19862;DHT22;10093;48.148;8.542;2024-02-15T15:33:41;14.50;99.90
19862;DHT22;10093;48.148;8.542;2024-02-15T15:36:12;14.40;99.90
19862;DHT22;10093;48.148;8.542;2024-02-15T15:38:38;14.40;99.90
19862;DHT22;10093;48.148;8.542;2024-02-15T15:41:04;14.30;99.90
19862;DHT22;10093;48.148;8.542;2024-02-15T15:43:29;14.20;99.90
19862;DHT22;10093;48.148;8.542;2024-02-15T15:45:55;14.20;99.90
19862;DHT22;10093;48.148;8.542;2024-02-15T15:48:23;14.10;99.90
19862;DHT22;10093;48.148;8.542;2024-02-15T15:50:48;13.90;99.90
19862;DHT22;10093;48.148;8.542;2024-02-15T15:53:14;13.70;99.90
19862;DHT22;10093;48.148;8.542;2024-02-15T15:55:40;13.50;99.90